createdAt,value
2019-05-03T00:00:53.905Z,0
2019-05-03T00:02:07.928Z,0
2019-05-03T00:03:22.150Z,0
2019-05-03T00:04:36.341Z,0
2019-05-03T00:05:50.673Z,0
2019-05-03T00:07:04.759Z,0
2019-05-03T00:08:18.901Z,0
2019-05-03T00:10:47.431Z,0
2019-05-03T00:12:01.785Z,0
2019-05-03T00:13:15.703Z,0
2019-05-03T00:14:29.865Z,0
2019-05-03T00:15:44.375Z,0
2019-05-03T00:16:58.302Z,0
2019-05-03T00:18:12.470Z,0
2019-05-03T00:19:26.791Z,0
2019-05-03T00:20:40.888Z,0
2019-05-03T00:21:55.071Z,0
2019-05-03T00:23:10.805Z,0
2019-05-03T00:24:23.594Z,0
2019-05-03T00:25:37.677Z,0
2019-05-03T00:26:51.938Z,0
2019-05-03T00:28:06.074Z,0
2019-05-03T00:30:34.549Z,0
2019-05-03T00:31:48.868Z,0
2019-05-03T00:33:02.976Z,0
2019-05-03T00:34:17.217Z,0
2019-05-03T00:35:31.390Z,0
2019-05-03T00:36:45.474Z,0
2019-05-03T00:37:59.679Z,0
2019-05-03T00:39:13.868Z,0
2019-05-03T00:40:28.212Z,0
2019-05-03T00:41:42.288Z,0
2019-05-03T00:42:56.572Z,0
2019-05-03T00:44:10.696Z,0
2019-05-03T00:45:24.927Z,0
2019-05-03T00:46:39.086Z,0
2019-05-03T00:47:53.297Z,0
2019-05-03T00:49:07.500Z,0
2019-05-03T00:50:21.889Z,0
2019-05-03T00:51:35.916Z,0
2019-05-03T00:52:51.981Z,0
2019-05-03T00:54:04.373Z,0
2019-05-03T00:56:32.751Z,0
2019-05-03T00:57:47.140Z,0
2019-05-03T00:59:01.177Z,0
2019-05-03T01:00:15.382Z,0
2019-05-03T01:01:29.698Z,0
2019-05-03T01:02:43.798Z,0
2019-05-03T01:05:12.219Z,0
2019-05-03T01:06:26.423Z,0
2019-05-03T01:07:40.653Z,0
2019-05-03T01:08:54.825Z,0
2019-05-03T01:10:09.029Z,0
2019-05-03T01:11:23.424Z,0
2019-05-03T01:12:37.525Z,0
2019-05-03T01:13:52.758Z,0
2019-05-03T01:15:05.846Z,0
2019-05-03T01:16:20.133Z,0
2019-05-03T01:17:34.288Z,0
2019-05-03T01:18:48.529Z,0
2019-05-03T01:20:02.641Z,0
2019-05-03T01:21:16.975Z,0
2019-05-03T01:22:31.350Z,0
2019-05-03T01:23:50.868Z,0
2019-05-03T01:24:59.766Z,0
2019-05-03T01:26:13.672Z,0
2019-05-03T01:27:27.901Z,0
2019-05-03T01:28:42.070Z,0
2019-05-03T01:29:56.256Z,0
2019-05-03T01:31:10.476Z,0
2019-05-03T01:32:24.826Z,0
2019-05-03T01:33:42.029Z,0
2019-05-03T01:34:53.083Z,0
2019-05-03T01:36:08.429Z,0
2019-05-03T01:37:21.529Z,0
2019-05-03T01:38:35.678Z,0
2019-05-03T01:39:49.901Z,0
2019-05-03T01:41:04.273Z,0
2019-05-03T01:42:18.330Z,0
2019-05-03T01:43:32.550Z,0
2019-05-03T01:44:46.744Z,0
2019-05-03T01:46:00.930Z,0
2019-05-03T01:47:15.293Z,0
2019-05-03T01:48:29.322Z,0
2019-05-03T01:49:43.537Z,0
2019-05-03T01:50:57.754Z,0
2019-05-03T01:52:12.066Z,0
2019-05-03T01:53:26.269Z,0
2019-05-03T01:54:40.422Z,0
2019-05-03T01:55:56.546Z,0
2019-05-03T01:57:08.789Z,0
2019-05-03T01:58:23.021Z,0
2019-05-03T01:59:37.209Z,0
2019-05-03T02:00:54.336Z,0
2019-05-03T02:02:05.622Z,0
2019-05-03T02:03:19.921Z,0
2019-05-03T02:04:34.108Z,0
2019-05-03T02:05:48.264Z,0
2019-05-03T02:07:02.554Z,0
2019-05-03T02:08:16.654Z,0
2019-05-03T02:09:30.931Z,0
2019-05-03T02:10:45.101Z,0
2019-05-03T02:11:59.291Z,0
2019-05-03T02:13:13.584Z,0
2019-05-03T02:14:27.757Z,0
2019-05-03T02:15:42.135Z,0
2019-05-03T02:16:56.350Z,0
2019-05-03T02:18:10.400Z,0
2019-05-03T02:19:24.549Z,0
2019-05-03T02:20:38.848Z,0
2019-05-03T02:21:52.968Z,0
2019-05-03T02:23:07.183Z,0
2019-05-03T02:24:21.885Z,0
2019-05-03T02:25:35.623Z,0
2019-05-03T02:26:49.821Z,0
2019-05-03T02:28:04.041Z,0
2019-05-03T02:29:18.237Z,0
2019-05-03T02:30:32.578Z,0
2019-05-03T02:31:46.647Z,0
2019-05-03T02:33:00.946Z,0
2019-05-03T02:34:15.334Z,0
2019-05-03T02:35:29.433Z,0
2019-05-03T02:36:43.623Z,0
2019-05-03T02:39:11.920Z,0
2019-05-03T02:40:26.168Z,0
2019-05-03T02:41:40.330Z,0
2019-05-03T02:42:54.577Z,0
2019-05-03T02:44:08.761Z,0
2019-05-03T02:46:37.241Z,0
2019-05-03T02:47:51.418Z,0
2019-05-03T02:49:05.690Z,0
2019-05-03T02:50:19.935Z,0
2019-05-03T02:51:34.049Z,0
2019-05-03T02:52:48.329Z,0
2019-05-03T02:54:02.413Z,0
2019-05-03T02:55:19.779Z,0
2019-05-03T02:56:30.990Z,0
2019-05-03T02:57:45.899Z,0
2019-05-03T02:58:59.220Z,0
2019-05-03T03:00:13.576Z,0
2019-05-03T03:01:27.696Z,0
2019-05-03T03:02:41.861Z,0
2019-05-03T03:05:10.366Z,0
2019-05-03T03:06:24.545Z,0
2019-05-03T03:07:38.822Z,0
2019-05-03T03:08:53.013Z,0
2019-05-03T03:10:07.546Z,0
2019-05-03T03:11:21.398Z,0
2019-05-03T03:12:35.540Z,0
2019-05-03T03:13:49.687Z,0
2019-05-03T03:15:03.936Z,0
2019-05-03T03:16:19.657Z,0
2019-05-03T03:17:32.330Z,0
2019-05-03T03:18:46.602Z,0
2019-05-03T03:20:01.056Z,0
2019-05-03T03:21:14.957Z,0
2019-05-03T03:22:29.168Z,0
2019-05-03T03:23:43.377Z,0
2019-05-03T03:24:57.626Z,0
2019-05-03T03:27:26.070Z,0
2019-05-03T03:28:40.167Z,0
2019-05-03T03:29:54.526Z,0
2019-05-03T03:31:08.578Z,0
2019-05-03T03:32:22.836Z,0
2019-05-03T03:33:36.998Z,0
2019-05-03T03:34:51.179Z,0
2019-05-03T03:36:05.464Z,0
2019-05-03T03:37:19.600Z,0
2019-05-03T03:38:38.574Z,0
2019-05-03T03:39:48.000Z,0
2019-05-03T03:41:02.189Z,0
2019-05-03T03:42:16.419Z,0
2019-05-03T03:43:30.615Z,0
2019-05-03T03:44:44.797Z,0
2019-05-03T03:45:59.035Z,0
2019-05-03T03:47:13.197Z,0
2019-05-03T03:48:27.903Z,0
2019-05-03T03:49:41.625Z,0
2019-05-03T03:50:55.815Z,0
2019-05-03T03:52:10.140Z,5
2019-05-03T03:53:24.210Z,5
2019-05-03T03:54:38.431Z,5
2019-05-03T03:55:56.788Z,5
2019-05-03T03:57:06.830Z,5
2019-05-03T03:58:21.020Z,5
2019-05-03T03:59:35.275Z,5
2019-05-03T04:00:49.464Z,11
2019-05-03T04:02:03.628Z,11
2019-05-03T04:03:17.863Z,11
2019-05-03T04:04:32.132Z,11
2019-05-03T04:05:46.314Z,11
2019-05-03T04:07:00.469Z,11
2019-05-03T04:08:20.397Z,16
2019-05-03T04:09:28.859Z,16
2019-05-03T04:10:44.119Z,16
2019-05-03T04:13:11.472Z,22
2019-05-03T04:14:25.727Z,22
2019-05-03T04:15:39.886Z,28
2019-05-03T04:16:54.132Z,28
2019-05-03T04:18:08.600Z,28
2019-05-03T04:19:22.478Z,33
2019-05-03T04:20:36.800Z,33
2019-05-03T04:21:51.080Z,39
2019-05-03T04:23:05.358Z,39
2019-05-03T04:24:19.289Z,45
2019-05-03T04:25:33.779Z,50
2019-05-03T04:26:47.730Z,50
2019-05-03T04:28:02.210Z,56
2019-05-03T04:29:16.156Z,61
2019-05-03T04:30:30.499Z,67
2019-05-03T04:31:44.697Z,73
2019-05-03T04:32:58.756Z,73
2019-05-03T04:34:13.394Z,78
2019-05-03T04:35:27.144Z,78
2019-05-03T04:36:41.343Z,84
2019-05-03T04:37:55.993Z,90
2019-05-03T04:39:09.813Z,95
2019-05-03T04:40:24.075Z,101
2019-05-03T04:41:38.229Z,106
2019-05-03T04:42:52.350Z,112
2019-05-03T04:44:06.979Z,118
2019-05-03T04:45:20.873Z,129
2019-05-03T04:46:34.947Z,135
2019-05-03T04:47:49.170Z,140
2019-05-03T04:49:03.377Z,146
2019-05-03T04:50:21.940Z,151
2019-05-03T04:51:31.786Z,157
2019-05-03T04:52:45.990Z,163
2019-05-03T04:54:01.297Z,174
2019-05-03T04:55:14.324Z,180
2019-05-03T04:56:28.979Z,185
2019-05-03T04:57:42.686Z,191
2019-05-03T04:58:57.247Z,196
2019-05-03T05:00:11.117Z,202
2019-05-03T05:02:39.516Z,213
2019-05-03T05:03:53.850Z,213
2019-05-03T05:05:07.916Z,213
2019-05-03T05:06:22.182Z,219
2019-05-03T05:07:36.481Z,225
2019-05-03T05:10:04.770Z,241
2019-05-03T05:11:18.806Z,241
2019-05-03T05:12:33.008Z,241
2019-05-03T05:13:47.306Z,247
2019-05-03T05:15:01.375Z,253
2019-05-03T05:16:15.569Z,253
2019-05-03T05:17:29.794Z,264
2019-05-03T05:18:43.988Z,270
2019-05-03T05:19:58.342Z,275
2019-05-03T05:21:12.341Z,275
2019-05-03T05:22:26.691Z,281
2019-05-03T05:24:54.918Z,303
2019-05-03T05:26:10.147Z,303
2019-05-03T05:27:23.290Z,309
2019-05-03T05:28:37.527Z,315
2019-05-03T05:29:51.786Z,320
2019-05-03T05:31:06.001Z,326
2019-05-03T05:32:20.781Z,331
2019-05-03T05:33:34.336Z,337
2019-05-03T05:34:48.414Z,343
2019-05-03T05:36:02.648Z,348
2019-05-03T05:37:16.784Z,348
2019-05-03T05:38:31.043Z,348
2019-05-03T05:39:45.365Z,354
2019-05-03T05:40:59.897Z,343
2019-05-03T05:42:13.931Z,376
2019-05-03T05:43:27.812Z,343
2019-05-03T05:44:41.970Z,331
2019-05-03T05:45:56.096Z,303
2019-05-03T05:47:10.375Z,365
2019-05-03T05:48:24.459Z,382
2019-05-03T05:49:38.755Z,376
2019-05-03T05:50:52.831Z,331
2019-05-03T05:52:07.450Z,326
2019-05-03T05:53:21.425Z,303
2019-05-03T05:54:35.478Z,298
2019-05-03T05:55:56.709Z,292
2019-05-03T05:57:03.971Z,376
2019-05-03T05:58:17.918Z,399
2019-05-03T05:59:32.112Z,410
2019-05-03T06:00:46.460Z,433
2019-05-03T06:02:00.486Z,455
2019-05-03T06:04:28.951Z,511
2019-05-03T06:05:43.007Z,551
2019-05-03T06:08:11.322Z,613
2019-05-03T06:09:25.503Z,630
2019-05-03T06:10:39.768Z,568
2019-05-03T06:13:08.197Z,663
2019-05-03T06:14:22.122Z,652
2019-05-03T06:15:36.340Z,641
2019-05-03T06:16:51.070Z,624
2019-05-03T06:18:04.628Z,624
2019-05-03T06:19:18.717Z,697
2019-05-03T06:20:33.301Z,759
2019-05-03T06:21:46.974Z,658
2019-05-03T06:23:01.225Z,652
2019-05-03T06:24:15.289Z,641
2019-05-03T06:25:29.648Z,635
2019-05-03T06:26:43.607Z,658
2019-05-03T06:27:57.786Z,590
2019-05-03T06:29:11.903Z,635
2019-05-03T06:30:26.013Z,613
2019-05-03T06:31:40.197Z,753
2019-05-03T06:32:54.363Z,646
2019-05-03T06:34:08.565Z,815
2019-05-03T06:35:22.665Z,624
2019-05-03T06:36:36.924Z,658
2019-05-03T06:37:51.002Z,618
2019-05-03T06:39:05.120Z,523
2019-05-03T06:40:19.215Z,511
2019-05-03T06:41:36.501Z,736
2019-05-03T06:42:47.537Z,843
2019-05-03T06:45:15.845Z,556
2019-05-03T06:46:30.212Z,478
2019-05-03T06:47:44.226Z,489
2019-05-03T06:48:58.271Z,950
2019-05-03T06:50:12.520Z,540
2019-05-03T06:51:26.708Z,787
2019-05-03T06:52:40.822Z,776
2019-05-03T06:53:54.876Z,579
2019-05-03T06:55:09.871Z,607
2019-05-03T06:56:26.647Z,1108
2019-05-03T06:57:37.357Z,1040
2019-05-03T06:58:51.506Z,669
2019-05-03T07:00:05.709Z,708
2019-05-03T07:01:19.789Z,883
2019-05-03T07:02:34.135Z,1153
2019-05-03T07:03:48.110Z,1209
2019-05-03T07:05:02.216Z,1125
2019-05-03T07:06:16.517Z,1355
2019-05-03T07:07:30.548Z,984
2019-05-03T07:08:44.651Z,1063
2019-05-03T07:10:00.425Z,646
2019-05-03T07:11:13.402Z,714
2019-05-03T07:12:27.426Z,1248
2019-05-03T07:13:41.296Z,1209
2019-05-03T07:14:55.408Z,697
2019-05-03T07:16:09.487Z,1203
2019-05-03T07:17:23.626Z,736
2019-05-03T07:18:37.832Z,776
2019-05-03T07:19:51.919Z,770
2019-05-03T07:21:06.415Z,742
2019-05-03T07:22:20.438Z,708
2019-05-03T07:23:34.411Z,708
2019-05-03T07:24:48.546Z,686
2019-05-03T07:26:08.814Z,849
2019-05-03T07:27:22.028Z,714
2019-05-03T07:30:59.382Z,894
2019-05-03T07:32:13.426Z,753
2019-05-03T07:33:27.575Z,691
2019-05-03T07:34:41.699Z,663
2019-05-03T07:35:55.877Z,658
2019-05-03T07:37:10.095Z,686
2019-05-03T07:38:24.226Z,714
2019-05-03T07:39:38.316Z,748
2019-05-03T07:40:52.455Z,1006
2019-05-03T07:42:06.676Z,832
2019-05-03T07:43:20.774Z,826
2019-05-03T07:44:35.042Z,821
2019-05-03T07:45:49.117Z,1558
2019-05-03T07:47:03.275Z,1648
2019-05-03T07:48:17.529Z,1293
2019-05-03T07:49:31.666Z,967
2019-05-03T07:50:45.750Z,1873
2019-05-03T07:51:59.996Z,1906
2019-05-03T07:53:13.968Z,1822
2019-05-03T07:54:28.106Z,1996
2019-05-03T07:56:56.537Z,2058
2019-05-03T07:58:10.448Z,2081
2019-05-03T07:59:24.567Z,2041
2019-05-03T08:00:38.654Z,1901
2019-05-03T08:01:53.084Z,810
2019-05-03T08:03:07.007Z,843
2019-05-03T08:04:21.053Z,877
2019-05-03T08:05:35.235Z,1040
2019-05-03T08:06:49.195Z,838
2019-05-03T08:08:03.348Z,804
2019-05-03T08:09:22.645Z,990
2019-05-03T08:10:36.070Z,1918
2019-05-03T08:12:59.954Z,2092
2019-05-03T08:14:14.114Z,2041
2019-05-03T08:15:28.055Z,2081
2019-05-03T08:16:42.455Z,1929
2019-05-03T08:17:56.357Z,2008
2019-05-03T08:19:10.372Z,2323
2019-05-03T08:20:24.476Z,2278
2019-05-03T08:21:38.786Z,2295
2019-05-03T08:22:52.826Z,945
2019-05-03T08:24:06.920Z,900
2019-05-03T08:25:20.956Z,922
2019-05-03T08:26:35.151Z,984
2019-05-03T08:29:03.287Z,1006
2019-05-03T08:30:17.712Z,1035
2019-05-03T08:31:31.465Z,2486
2019-05-03T08:32:45.762Z,1130
2019-05-03T08:33:59.801Z,2272
2019-05-03T08:35:14.020Z,1586
2019-05-03T08:36:28.288Z,2199
2019-05-03T08:37:42.496Z,2266
2019-05-03T08:38:56.200Z,2272
2019-05-03T08:40:10.352Z,2210
2019-05-03T08:41:24.485Z,2120
2019-05-03T08:42:38.490Z,1794
2019-05-03T08:43:52.732Z,2205
2019-05-03T08:45:06.817Z,2351
2019-05-03T08:46:20.804Z,2300
2019-05-03T08:48:51.826Z,2385
2019-05-03T08:50:03.108Z,2210
2019-05-03T08:51:17.535Z,2930
2019-05-03T08:52:31.463Z,2835
2019-05-03T08:53:45.525Z,1355
2019-05-03T08:54:59.505Z,1046
2019-05-03T08:57:27.650Z,714
2019-05-03T08:58:41.773Z,669
2019-05-03T08:59:55.915Z,669
2019-05-03T09:02:24.289Z,753
2019-05-03T09:03:38.401Z,810
2019-05-03T09:04:52.442Z,855
2019-05-03T09:06:06.715Z,900
2019-05-03T09:07:20.697Z,933
2019-05-03T09:08:35.026Z,990
2019-05-03T09:09:52.146Z,1035
2019-05-03T09:11:05.203Z,1175
2019-05-03T09:12:20.064Z,1321
2019-05-03T09:13:31.515Z,2818
2019-05-03T09:14:47.852Z,2975
2019-05-03T09:16:01.737Z,2981
2019-05-03T09:17:18.469Z,1293
2019-05-03T09:18:28.054Z,1845
2019-05-03T09:19:42.099Z,2840
2019-05-03T09:22:10.312Z,973
2019-05-03T09:23:24.572Z,1001
2019-05-03T09:24:38.647Z,1119
2019-05-03T09:27:07.930Z,1417
2019-05-03T09:28:20.888Z,3116
2019-05-03T09:29:35.017Z,2553
2019-05-03T09:30:49.151Z,1957
2019-05-03T09:32:03.212Z,1243
2019-05-03T09:33:17.681Z,2362
2019-05-03T09:34:31.453Z,1141
2019-05-03T09:35:45.672Z,1046
2019-05-03T09:36:59.728Z,990
2019-05-03T09:38:13.802Z,1001
2019-05-03T09:39:27.903Z,1018
2019-05-03T09:40:42.036Z,1040
2019-05-03T09:41:56.929Z,1040
2019-05-03T09:43:10.294Z,1029
2019-05-03T09:44:24.754Z,1035
2019-05-03T09:45:38.640Z,1108
2019-05-03T09:46:52.797Z,1293
2019-05-03T09:48:07.021Z,2666
2019-05-03T09:49:20.972Z,3031
2019-05-03T09:50:35.190Z,2998
2019-05-03T09:51:49.213Z,2615
2019-05-03T09:53:03.513Z,1310
2019-05-03T09:54:17.866Z,1001
2019-05-03T09:55:32.191Z,798
2019-05-03T09:57:59.873Z,703
2019-05-03T09:59:14.105Z,736
2019-05-03T10:00:28.085Z,787
2019-05-03T10:01:42.265Z,843
2019-05-03T10:02:56.460Z,877
2019-05-03T10:04:10.474Z,950
2019-05-03T10:05:24.769Z,1096
2019-05-03T10:06:38.924Z,1344
2019-05-03T10:07:53.415Z,1676
2019-05-03T10:09:07.154Z,2536
2019-05-03T10:10:21.178Z,3217
2019-05-03T10:12:49.519Z,3532
2019-05-03T10:14:03.561Z,3526
2019-05-03T10:15:17.651Z,3560
2019-05-03T10:16:31.622Z,3678
2019-05-03T10:17:45.718Z,3690
2019-05-03T10:19:00.114Z,3206
2019-05-03T10:20:13.805Z,3245
2019-05-03T10:21:27.859Z,2975
2019-05-03T10:23:55.984Z,3279
2019-05-03T10:25:10.048Z,3448
2019-05-03T10:26:31.728Z,1305
2019-05-03T10:27:39.394Z,1051
2019-05-03T10:28:52.341Z,866
2019-05-03T10:30:06.352Z,691
2019-05-03T10:31:20.447Z,590
2019-05-03T10:32:34.723Z,511
2019-05-03T10:33:48.767Z,478
2019-05-03T10:35:02.796Z,489
2019-05-03T10:36:17.066Z,528
2019-05-03T10:37:31.184Z,601
2019-05-03T10:38:45.668Z,658
2019-05-03T10:39:59.644Z,686
2019-05-03T10:41:13.521Z,697
2019-05-03T10:42:27.656Z,691
2019-05-03T10:43:41.822Z,720
2019-05-03T10:44:55.997Z,765
2019-05-03T10:46:10.272Z,832
2019-05-03T10:47:24.333Z,911
2019-05-03T10:48:38.473Z,1012
2019-05-03T10:49:52.690Z,1164
2019-05-03T10:51:06.952Z,1395
2019-05-03T10:53:35.149Z,3521
2019-05-03T10:54:49.182Z,3819
2019-05-03T10:57:17.996Z,3684
2019-05-03T10:58:31.473Z,1788
2019-05-03T10:59:45.706Z,1659
2019-05-03T11:00:59.701Z,1490
2019-05-03T11:02:13.825Z,1372
2019-05-03T11:03:28.196Z,1597
2019-05-03T11:04:42.059Z,4291
2019-05-03T11:05:56.114Z,4381
2019-05-03T11:07:11.064Z,2638
2019-05-03T11:08:24.280Z,1665
2019-05-03T11:09:38.860Z,1591
2019-05-03T11:10:52.906Z,1541
2019-05-03T11:13:20.746Z,1535
2019-05-03T11:14:34.825Z,1473
2019-05-03T11:15:48.920Z,1366
2019-05-03T11:17:03.085Z,1271
2019-05-03T11:18:17.105Z,1282
2019-05-03T11:19:31.252Z,1271
2019-05-03T11:20:45.468Z,1254
2019-05-03T11:21:59.597Z,1192
2019-05-03T11:23:13.678Z,1108
2019-05-03T11:24:27.768Z,1130
2019-05-03T11:27:04.459Z,1473
2019-05-03T11:28:10.157Z,1636
2019-05-03T11:29:24.357Z,1710
2019-05-03T11:30:38.443Z,1670
2019-05-03T11:31:52.591Z,2075
2019-05-03T11:33:06.852Z,3622
2019-05-03T11:34:20.991Z,4798
2019-05-03T11:35:35.030Z,4882
2019-05-03T11:36:48.963Z,4325
2019-05-03T11:38:03.353Z,2250
2019-05-03T11:39:17.173Z,3538
2019-05-03T11:40:31.482Z,3420
2019-05-03T11:41:45.459Z,1580
2019-05-03T11:42:59.542Z,1355
2019-05-03T11:44:13.637Z,1147
2019-05-03T11:45:27.831Z,1018
2019-05-03T11:47:55.987Z,900
2019-05-03T11:49:10.007Z,945
2019-05-03T11:50:24.129Z,1102
2019-05-03T11:51:38.351Z,1293
2019-05-03T11:52:52.462Z,1389
2019-05-03T11:54:07.114Z,1395
2019-05-03T11:55:20.815Z,3200
2019-05-03T11:56:47.101Z,4066
2019-05-03T11:59:03.763Z,4685
2019-05-03T12:00:19.348Z,1586
2019-05-03T12:01:34.443Z,1524
2019-05-03T12:02:48.627Z,3915
2019-05-03T12:04:03.350Z,3510
2019-05-03T12:05:13.579Z,1580
2019-05-03T12:06:27.684Z,4320
2019-05-03T12:07:41.865Z,4213
2019-05-03T12:08:56.056Z,4342
2019-05-03T12:10:10.293Z,2621
2019-05-03T12:11:24.097Z,2733
2019-05-03T12:12:38.258Z,1473
2019-05-03T12:13:52.250Z,1170
2019-05-03T12:15:06.483Z,1119
2019-05-03T12:16:20.709Z,1175
2019-05-03T12:17:34.686Z,3386
2019-05-03T12:18:48.674Z,2463
2019-05-03T12:20:02.917Z,3808
2019-05-03T12:21:16.901Z,1231
2019-05-03T12:22:31.032Z,4128
2019-05-03T12:23:45.209Z,4258
2019-05-03T12:24:59.168Z,4314
2019-05-03T12:26:17.656Z,4466
2019-05-03T12:27:28.335Z,4635
2019-05-03T12:29:55.517Z,1710
2019-05-03T12:31:09.731Z,1541
2019-05-03T12:32:23.761Z,1811
2019-05-03T12:33:37.873Z,2958
2019-05-03T12:34:51.891Z,5096
2019-05-03T12:36:06.002Z,4651
2019-05-03T12:37:20.182Z,1704
2019-05-03T12:38:34.167Z,1507
2019-05-03T12:39:48.185Z,1305
2019-05-03T12:41:02.387Z,1158
2019-05-03T12:42:16.383Z,1051
2019-05-03T12:43:30.891Z,973
2019-05-03T12:44:45.916Z,967
2019-05-03T12:45:58.689Z,973
2019-05-03T12:47:13.131Z,1006
2019-05-03T12:49:41.179Z,2520
2019-05-03T12:50:55.235Z,1411
2019-05-03T12:52:09.366Z,1293
2019-05-03T12:54:37.747Z,1125
2019-05-03T12:55:56.728Z,1012
2019-05-03T12:57:06.405Z,849
2019-05-03T12:58:20.030Z,708
2019-05-03T12:59:37.128Z,624
2019-05-03T13:00:48.371Z,590
2019-05-03T13:02:06.377Z,596
2019-05-03T13:04:30.752Z,725
2019-05-03T13:05:44.972Z,866
2019-05-03T13:06:59.039Z,1074
2019-05-03T13:08:13.745Z,1608
2019-05-03T13:09:27.978Z,4415
2019-05-03T13:10:41.557Z,4477
2019-05-03T13:11:55.978Z,2986
2019-05-03T13:13:10.017Z,1181
2019-05-03T13:14:24.289Z,1023
2019-05-03T13:15:38.057Z,945
2019-05-03T13:16:53.374Z,866
2019-05-03T13:18:06.219Z,832
2019-05-03T13:19:20.334Z,849
2019-05-03T13:20:34.729Z,939
2019-05-03T13:21:48.686Z,1040
2019-05-03T13:23:02.740Z,1237
2019-05-03T13:24:16.886Z,2784
2019-05-03T13:25:31.179Z,4747
2019-05-03T13:26:48.333Z,4882
2019-05-03T13:27:59.236Z,3060
2019-05-03T13:29:13.373Z,2829
2019-05-03T13:30:27.677Z,4145
2019-05-03T13:31:41.649Z,2323
2019-05-03T13:32:55.659Z,4798
2019-05-03T13:34:10.436Z,2092
2019-05-03T13:35:24.090Z,1310
2019-05-03T13:36:38.256Z,1209
2019-05-03T13:37:52.132Z,1001
2019-05-03T13:39:06.351Z,990
2019-05-03T13:40:20.369Z,1046
2019-05-03T13:41:34.437Z,1096
2019-05-03T13:42:48.672Z,1141
2019-05-03T13:44:02.685Z,1170
2019-05-03T13:46:30.950Z,911
2019-05-03T13:47:45.181Z,776
2019-05-03T13:48:59.229Z,658
2019-05-03T13:50:13.381Z,585
2019-05-03T13:51:27.863Z,551
2019-05-03T13:52:41.657Z,523
2019-05-03T13:53:55.841Z,506
2019-05-03T13:55:09.991Z,500
2019-05-03T13:57:38.506Z,523
2019-05-03T13:58:52.554Z,573
2019-05-03T14:00:07.113Z,697
2019-05-03T14:01:21.309Z,1203
2019-05-03T14:02:35.141Z,1451
2019-05-03T14:03:49.247Z,3009
2019-05-03T14:05:03.365Z,3858
2019-05-03T14:06:17.389Z,4286
2019-05-03T14:07:31.485Z,4016
2019-05-03T14:08:45.656Z,1901
2019-05-03T14:09:59.767Z,3048
2019-05-03T14:11:13.856Z,2711
2019-05-03T14:12:28.117Z,2863
2019-05-03T14:13:42.150Z,2036
2019-05-03T14:14:56.221Z,2981
2019-05-03T14:17:24.603Z,1693
2019-05-03T14:18:38.635Z,2289
2019-05-03T14:19:52.951Z,1535
2019-05-03T14:21:06.891Z,1355
2019-05-03T14:22:20.888Z,1175
2019-05-03T14:23:35.070Z,933
2019-05-03T14:24:49.301Z,804
2019-05-03T14:26:04.748Z,815
2019-05-03T14:27:17.541Z,984
2019-05-03T14:28:31.534Z,1996
2019-05-03T14:29:45.637Z,1850
2019-05-03T14:30:59.824Z,1338
2019-05-03T14:32:14.019Z,1490
2019-05-03T14:33:28.050Z,1451
2019-05-03T14:34:42.191Z,2722
2019-05-03T14:35:56.364Z,2593
2019-05-03T14:37:10.432Z,1974
2019-05-03T14:38:24.523Z,1845
2019-05-03T14:39:39.005Z,2953
2019-05-03T14:40:52.837Z,1552
2019-05-03T14:42:06.907Z,1355
2019-05-03T14:43:21.150Z,1271
2019-05-03T14:44:35.155Z,1293
2019-05-03T14:45:49.191Z,1299
2019-05-03T14:47:03.419Z,1226
2019-05-03T14:48:22.614Z,1158
2019-05-03T14:49:36.584Z,1085
2019-05-03T14:50:45.787Z,978
2019-05-03T14:52:00.355Z,866
2019-05-03T14:53:13.894Z,736
2019-05-03T14:54:28.027Z,635
2019-05-03T14:55:43.115Z,579
2019-05-03T14:58:24.701Z,573
2019-05-03T14:59:37.139Z,652
2019-05-03T15:00:48.927Z,753
2019-05-03T15:01:55.637Z,916
2019-05-03T15:03:07.692Z,995
2019-05-03T15:04:21.176Z,961
2019-05-03T15:05:35.288Z,855
2019-05-03T15:06:49.496Z,765
2019-05-03T15:08:03.554Z,753
2019-05-03T15:09:17.742Z,748
2019-05-03T15:10:32.039Z,731
2019-05-03T15:11:45.996Z,736
2019-05-03T15:13:00.159Z,742
2019-05-03T15:14:14.360Z,787
2019-05-03T15:15:28.951Z,866
2019-05-03T15:16:43.477Z,1119
2019-05-03T15:17:56.880Z,1597
2019-05-03T15:19:11.099Z,1355
2019-05-03T15:20:25.033Z,1226
2019-05-03T15:21:39.244Z,1046
2019-05-03T15:22:53.321Z,894
2019-05-03T15:24:07.512Z,776
2019-05-03T15:25:21.772Z,725
2019-05-03T15:26:36.096Z,720
2019-05-03T15:27:49.960Z,720
2019-05-03T15:29:05.205Z,691
2019-05-03T15:30:21.268Z,697
2019-05-03T15:32:51.430Z,883
2019-05-03T15:34:00.708Z,945
2019-05-03T15:35:14.757Z,883
2019-05-03T15:36:28.894Z,781
2019-05-03T15:37:43.056Z,686
2019-05-03T15:38:57.189Z,613
2019-05-03T15:40:11.500Z,562
2019-05-03T15:41:25.639Z,523
2019-05-03T15:42:39.666Z,483
2019-05-03T15:43:53.958Z,472
2019-05-03T15:45:07.966Z,483
2019-05-03T15:46:22.170Z,540
2019-05-03T15:47:36.240Z,551
2019-05-03T15:48:50.482Z,523
2019-05-03T15:50:04.575Z,506
2019-05-03T15:51:18.876Z,523
2019-05-03T15:52:33.001Z,579
2019-05-03T15:53:47.018Z,635
2019-05-03T15:55:01.211Z,686
2019-05-03T15:56:21.396Z,793
2019-05-03T15:57:29.469Z,961
2019-05-03T15:58:43.712Z,1057
2019-05-03T15:59:57.784Z,1051
2019-05-03T16:01:11.954Z,984
2019-05-03T16:02:26.104Z,900
2019-05-03T16:03:40.340Z,798
2019-05-03T16:04:54.436Z,708
2019-05-03T16:06:08.603Z,652
2019-05-03T16:07:22.963Z,618
2019-05-03T16:09:51.052Z,511
2019-05-03T16:11:05.186Z,461
2019-05-03T16:12:19.341Z,405
2019-05-03T16:13:37.014Z,343
2019-05-03T16:14:47.668Z,303
2019-05-03T16:16:01.827Z,281
2019-05-03T16:17:16.043Z,275
2019-05-03T16:18:30.194Z,281
2019-05-03T16:19:44.294Z,298
2019-05-03T16:20:58.426Z,331
2019-05-03T16:22:12.615Z,405
2019-05-03T16:23:26.870Z,472
2019-05-03T16:24:41.008Z,478
2019-05-03T16:25:56.887Z,427
2019-05-03T16:27:09.209Z,405
2019-05-03T16:28:23.385Z,444
2019-05-03T16:29:37.670Z,495
2019-05-03T16:30:51.787Z,517
2019-05-03T16:32:05.845Z,523
2019-05-03T16:33:20.011Z,528
2019-05-03T16:34:34.261Z,528
2019-05-03T16:35:48.393Z,489
2019-05-03T16:37:02.571Z,478
2019-05-03T16:38:16.705Z,466
2019-05-03T16:39:30.887Z,438
2019-05-03T16:40:45.137Z,376
2019-05-03T16:41:59.126Z,303
2019-05-03T16:43:13.405Z,247
2019-05-03T16:44:27.581Z,241
2019-05-03T16:45:41.644Z,270
2019-05-03T16:46:55.782Z,298
2019-05-03T16:48:10.038Z,326
2019-05-03T16:49:24.218Z,337
2019-05-03T16:50:38.306Z,315
2019-05-03T16:51:52.460Z,298
2019-05-03T16:53:06.727Z,281
2019-05-03T16:54:20.809Z,264
2019-05-03T16:55:35.510Z,247
2019-05-03T16:56:49.142Z,264
2019-05-03T16:59:17.519Z,331
2019-05-03T17:00:31.732Z,343
2019-05-03T17:01:45.854Z,337
2019-05-03T17:03:00.040Z,348
2019-05-03T17:04:14.222Z,360
2019-05-03T17:05:28.482Z,343
2019-05-03T17:06:42.588Z,292
2019-05-03T17:07:56.822Z,241
2019-05-03T17:09:10.986Z,202
2019-05-03T17:10:25.117Z,168
2019-05-03T17:11:39.272Z,140
2019-05-03T17:12:53.688Z,123
2019-05-03T17:14:07.697Z,118
2019-05-03T17:15:21.814Z,106
2019-05-03T17:16:36.041Z,112
2019-05-03T17:17:50.248Z,129
2019-05-03T17:19:04.370Z,135
2019-05-03T17:20:20.687Z,140
2019-05-03T17:21:32.766Z,151
2019-05-03T17:22:53.805Z,168
2019-05-03T17:24:01.138Z,174
2019-05-03T17:25:15.297Z,174
2019-05-03T17:26:29.481Z,185
2019-05-03T17:27:43.843Z,213
2019-05-03T17:28:57.964Z,230
2019-05-03T17:30:12.064Z,236
2019-05-03T17:31:26.216Z,247
2019-05-03T17:32:40.815Z,253
2019-05-03T17:33:54.653Z,247
2019-05-03T17:37:37.170Z,208
2019-05-03T17:38:51.550Z,196
2019-05-03T17:41:19.799Z,191
2019-05-03T17:42:33.921Z,196
2019-05-03T17:43:48.161Z,196
2019-05-03T17:45:02.283Z,196
2019-05-03T17:46:16.596Z,202
2019-05-03T17:47:30.652Z,208
2019-05-03T17:48:44.884Z,219
2019-05-03T17:49:59.025Z,208
2019-05-03T17:51:13.265Z,202
2019-05-03T17:52:27.463Z,196
2019-05-03T17:53:41.549Z,185
2019-05-03T17:54:55.808Z,168
2019-05-03T17:56:10.080Z,157
2019-05-03T17:57:24.089Z,151
2019-05-03T17:58:38.274Z,146
2019-05-03T17:59:52.550Z,140
2019-05-03T18:01:06.793Z,129
2019-05-03T18:02:20.834Z,123
2019-05-03T18:03:35.196Z,112
2019-05-03T18:04:49.300Z,106
2019-05-03T18:06:03.559Z,101
2019-05-03T18:07:17.626Z,95
2019-05-03T18:08:31.953Z,95